sensor_id;sensor_type;location;lat;lon;timestamp;P1;durP1;ratioP1;P2;durP2;ratioP2
20972;SDS011;10645;52.370;13.314;2023-03-20T00:00:38;1.42;;;1.33;;
20972;SDS011;10645;52.370;13.314;2023-03-20T00:03:09;1.15;;;1.05;;
20972;SDS011;10645;52.370;13.314;2023-03-20T00:05:36;1.15;;;1.15;;
20972;SDS011;10645;52.370;13.314;2023-03-20T00:08:03;0.90;;;0.90;;
20972;SDS011;10645;52.370;13.314;2023-03-20T00:10:31;1.60;;;1.50;;
20972;SDS011;10645;52.370;13.314;2023-03-20T00:13:01;1.13;;;1.02;;
20972;SDS011;10645;52.370;13.314;2023-03-20T00:15:34;1.67;;;1.58;;
20972;SDS011;10645;52.370;13.314;2023-03-20T00:18:02;1.33;;;1.17;;
20972;SDS011;10645;52.370;13.314;2023-03-20T00:20:35;1.73;;;1.13;;
20972;SDS011;10645;52.370;13.314;2023-03-20T00:23:02;2.58;;;1.60;;
20972;SDS011;10645;52.370;13.314;2023-03-20T00:25:29;1.52;;;1.40;;
20972;SDS011;10645;52.370;13.314;2023-03-20T00:27:56;2.20;;;1.92;;
20972;SDS011;10645;52.370;13.314;2023-03-20T00:30:27;5.78;;;1.65;;
20972;SDS011;10645;52.370;13.314;2023-03-20T00:32:56;4.40;;;2.10;;
20972;SDS011;10645;52.370;13.314;2023-03-20T00:35:26;1.20;;;1.10;;
20972;SDS011;10645;52.370;13.314;2023-03-20T00:37:55;2.05;;;1.92;;
20972;SDS011;10645;52.370;13.314;2023-03-20T00:40:24;2.15;;;1.33;;
20972;SDS011;10645;52.370;13.314;2023-03-20T00:42:56;3.00;;;1.38;;
20972;SDS011;10645;52.370;13.314;2023-03-20T00:45:24;2.50;;;1.27;;
20972;SDS011;10645;52.370;13.314;2023-03-20T00:47:51;0.63;;;0.63;;
20972;SDS011;10645;52.370;13.314;2023-03-20T00:52:47;1.33;;;1.23;;
20972;SDS011;10645;52.370;13.314;2023-03-20T00:55:13;8.30;;;0.98;;
20972;SDS011;10645;52.370;13.314;2023-03-20T00:57:44;1.85;;;0.95;;
20972;SDS011;10645;52.370;13.314;2023-03-20T01:00:21;2.95;;;1.75;;
20972;SDS011;10645;52.370;13.314;2023-03-20T01:02:57;1.63;;;1.52;;
20972;SDS011;10645;52.370;13.314;2023-03-20T01:05:24;3.67;;;2.05;;
20972;SDS011;10645;52.370;13.314;2023-03-20T01:07:52;0.98;;;0.93;;
20972;SDS011;10645;52.370;13.314;2023-03-20T01:10:21;2.05;;;1.15;;
20972;SDS011;10645;52.370;13.314;2023-03-20T01:12:52;1.55;;;1.35;;
20972;SDS011;10645;52.370;13.314;2023-03-20T01:15:29;2.05;;;1.92;;
20972;SDS011;10645;52.370;13.314;2023-03-20T01:17:57;2.20;;;1.60;;
20972;SDS011;10645;52.370;13.314;2023-03-20T01:20:24;1.25;;;1.15;;
20972;SDS011;10645;52.370;13.314;2023-03-20T01:22:53;1.42;;;1.33;;
20972;SDS011;10645;52.370;13.314;2023-03-20T01:25:19;1.48;;;1.38;;
20972;SDS011;10645;52.370;13.314;2023-03-20T01:27:48;1.17;;;1.08;;
20972;SDS011;10645;52.370;13.314;2023-03-20T01:30:18;1.65;;;1.25;;
20972;SDS011;10645;52.370;13.314;2023-03-20T01:32:47;8.60;;;1.90;;
20972;SDS011;10645;52.370;13.314;2023-03-20T01:35:15;0.98;;;0.98;;
20972;SDS011;10645;52.370;13.314;2023-03-20T01:37:45;1.30;;;1.10;;
20972;SDS011;10645;52.370;13.314;2023-03-20T01:40:18;0.80;;;0.80;;
20972;SDS011;10645;52.370;13.314;2023-03-20T01:42:52;1.48;;;1.35;;
20972;SDS011;10645;52.370;13.314;2023-03-20T01:45:19;3.00;;;1.45;;
20972;SDS011;10645;52.370;13.314;2023-03-20T01:47:49;1.60;;;0.98;;
20972;SDS011;10645;52.370;13.314;2023-03-20T01:50:25;1.95;;;1.38;;
20972;SDS011;10645;52.370;13.314;2023-03-20T01:53:07;1.35;;;1.15;;
20972;SDS011;10645;52.370;13.314;2023-03-20T01:55:52;3.00;;;1.58;;
20972;SDS011;10645;52.370;13.314;2023-03-20T01:58:23;0.60;;;0.60;;
20972;SDS011;10645;52.370;13.314;2023-03-20T02:00:55;1.58;;;1.48;;
20972;SDS011;10645;52.370;13.314;2023-03-20T02:03:21;2.08;;;1.67;;
20972;SDS011;10645;52.370;13.314;2023-03-20T02:06:08;2.45;;;1.95;;
20972;SDS011;10645;52.370;13.314;2023-03-20T02:08:56;2.20;;;2.03;;
20972;SDS011;10645;52.370;13.314;2023-03-20T02:11:24;2.38;;;1.73;;
20972;SDS011;10645;52.370;13.314;2023-03-20T02:13:52;2.75;;;1.58;;
20972;SDS011;10645;52.370;13.314;2023-03-20T02:16:21;1.08;;;1.08;;
20972;SDS011;10645;52.370;13.314;2023-03-20T02:19:09;1.20;;;1.20;;
20972;SDS011;10645;52.370;13.314;2023-03-20T02:21:54;2.28;;;2.08;;
20972;SDS011;10645;52.370;13.314;2023-03-20T02:24:53;1.98;;;1.77;;
20972;SDS011;10645;52.370;13.314;2023-03-20T02:28:02;2.30;;;1.50;;
20972;SDS011;10645;52.370;13.314;2023-03-20T02:33:44;2.03;;;1.83;;
20972;SDS011;10645;52.370;13.314;2023-03-20T02:36:40;2.38;;;2.08;;
20972;SDS011;10645;52.370;13.314;2023-03-20T02:39:35;1.33;;;1.23;;
20972;SDS011;10645;52.370;13.314;2023-03-20T02:48:32;2.42;;;2.22;;
20972;SDS011;10645;52.370;13.314;2023-03-20T02:53:54;1.42;;;1.33;;
20972;SDS011;10645;52.370;13.314;2023-03-20T02:56:58;1.60;;;1.00;;
20972;SDS011;10645;52.370;13.314;2023-03-20T02:59:42;2.33;;;1.58;;
20972;SDS011;10645;52.370;13.314;2023-03-20T03:02:33;1.77;;;1.42;;
20972;SDS011;10645;52.370;13.314;2023-03-20T03:05:05;3.28;;;2.08;;
20972;SDS011;10645;52.370;13.314;2023-03-20T03:07:38;2.05;;;1.85;;
20972;SDS011;10645;52.370;13.314;2023-03-20T03:10:10;1.13;;;1.02;;
20972;SDS011;10645;52.370;13.314;2023-03-20T03:12:42;1.98;;;1.88;;
20972;SDS011;10645;52.370;13.314;2023-03-20T03:15:16;1.83;;;1.73;;
20972;SDS011;10645;52.370;13.314;2023-03-20T03:17:47;2.25;;;1.77;;
20972;SDS011;10645;52.370;13.314;2023-03-20T03:20:38;2.17;;;1.60;;
20972;SDS011;10645;52.370;13.314;2023-03-20T03:23:05;1.33;;;1.23;;
20972;SDS011;10645;52.370;13.314;2023-03-20T03:25:33;1.55;;;1.45;;
20972;SDS011;10645;52.370;13.314;2023-03-20T03:28:07;1.92;;;1.77;;
20972;SDS011;10645;52.370;13.314;2023-03-20T03:30:44;2.33;;;1.30;;
20972;SDS011;10645;52.370;13.314;2023-03-20T03:33:18;1.95;;;1.85;;
20972;SDS011;10645;52.370;13.314;2023-03-20T03:35:48;2.42;;;2.28;;
20972;SDS011;10645;52.370;13.314;2023-03-20T03:43:50;1.40;;;1.33;;
20972;SDS011;10645;52.370;13.314;2023-03-20T03:49:00;1.88;;;1.77;;
20972;SDS011;10645;52.370;13.314;2023-03-20T03:51:30;2.78;;;1.90;;
20972;SDS011;10645;52.370;13.314;2023-03-20T03:54:06;2.45;;;1.75;;
20972;SDS011;10645;52.370;13.314;2023-03-20T03:56:36;2.28;;;1.73;;
20972;SDS011;10645;52.370;13.314;2023-03-20T03:59:07;3.05;;;2.33;;
20972;SDS011;10645;52.370;13.314;2023-03-20T04:01:38;2.80;;;2.60;;
20972;SDS011;10645;52.370;13.314;2023-03-20T04:04:09;1.70;;;1.40;;
20972;SDS011;10645;52.370;13.314;2023-03-20T04:06:38;2.38;;;2.22;;
20972;SDS011;10645;52.370;13.314;2023-03-20T04:09:05;2.30;;;2.10;;
20972;SDS011;10645;52.370;13.314;2023-03-20T04:11:31;2.25;;;2.08;;
20972;SDS011;10645;52.370;13.314;2023-03-20T04:13:57;1.70;;;1.58;;
20972;SDS011;10645;52.370;13.314;2023-03-20T04:16:23;3.65;;;3.13;;
20972;SDS011;10645;52.370;13.314;2023-03-20T04:18:50;3.35;;;1.77;;
20972;SDS011;10645;52.370;13.314;2023-03-20T04:21:17;1.23;;;1.13;;
20972;SDS011;10645;52.370;13.314;2023-03-20T04:23:44;3.03;;;2.70;;
20972;SDS011;10645;52.370;13.314;2023-03-20T04:26:10;2.10;;;1.35;;
20972;SDS011;10645;52.370;13.314;2023-03-20T04:28:37;1.30;;;1.23;;
20972;SDS011;10645;52.370;13.314;2023-03-20T04:31:30;3.25;;;2.95;;
20972;SDS011;10645;52.370;13.314;2023-03-20T04:34:15;4.28;;;2.63;;
20972;SDS011;10645;52.370;13.314;2023-03-20T04:37:00;2.47;;;1.83;;
20972;SDS011;10645;52.370;13.314;2023-03-20T04:39:36;2.75;;;2.05;;
20972;SDS011;10645;52.370;13.314;2023-03-20T04:42:02;3.45;;;2.65;;
20972;SDS011;10645;52.370;13.314;2023-03-20T04:44:30;2.45;;;1.70;;
20972;SDS011;10645;52.370;13.314;2023-03-20T04:46:57;3.25;;;2.38;;
20972;SDS011;10645;52.370;13.314;2023-03-20T04:49:23;3.83;;;2.08;;
20972;SDS011;10645;52.370;13.314;2023-03-20T04:51:49;3.15;;;2.70;;
20972;SDS011;10645;52.370;13.314;2023-03-20T04:54:25;3.80;;;2.38;;
20972;SDS011;10645;52.370;13.314;2023-03-20T04:56:52;15.15;;;9.88;;
20972;SDS011;10645;52.370;13.314;2023-03-20T04:59:19;19.58;;;11.40;;
20972;SDS011;10645;52.370;13.314;2023-03-20T05:01:45;23.50;;;11.63;;
20972;SDS011;10645;52.370;13.314;2023-03-20T05:04:11;11.05;;;6.45;;
20972;SDS011;10645;52.370;13.314;2023-03-20T05:06:37;6.32;;;4.15;;
20972;SDS011;10645;52.370;13.314;2023-03-20T05:09:03;6.05;;;3.40;;
20972;SDS011;10645;52.370;13.314;2023-03-20T05:11:32;2.92;;;2.63;;
20972;SDS011;10645;52.370;13.314;2023-03-20T05:14:04;3.60;;;3.30;;
20972;SDS011;10645;52.370;13.314;2023-03-20T05:16:42;4.05;;;2.60;;
20972;SDS011;10645;52.370;13.314;2023-03-20T05:19:17;3.08;;;2.75;;
20972;SDS011;10645;52.370;13.314;2023-03-20T05:21:53;4.40;;;3.78;;
20972;SDS011;10645;52.370;13.314;2023-03-20T05:24:43;3.30;;;3.00;;
20972;SDS011;10645;52.370;13.314;2023-03-20T05:27:27;2.97;;;2.70;;
20972;SDS011;10645;52.370;13.314;2023-03-20T05:30:04;12.55;;;4.80;;
20972;SDS011;10645;52.370;13.314;2023-03-20T05:32:48;3.08;;;2.83;;
20972;SDS011;10645;52.370;13.314;2023-03-20T05:35:34;5.07;;;3.40;;
20972;SDS011;10645;52.370;13.314;2023-03-20T05:38:09;2.35;;;2.08;;
20972;SDS011;10645;52.370;13.314;2023-03-20T05:40:43;2.70;;;2.05;;
20972;SDS011;10645;52.370;13.314;2023-03-20T05:43:18;3.30;;;3.00;;
20972;SDS011;10645;52.370;13.314;2023-03-20T05:46:13;8.80;;;3.38;;
20972;SDS011;10645;52.370;13.314;2023-03-20T05:49:03;6.65;;;3.35;;
20972;SDS011;10645;52.370;13.314;2023-03-20T05:51:55;1.98;;;1.88;;
20972;SDS011;10645;52.370;13.314;2023-03-20T05:54:29;3.45;;;3.13;;
20972;SDS011;10645;52.370;13.314;2023-03-20T05:57:16;4.13;;;2.58;;
20972;SDS011;10645;52.370;13.314;2023-03-20T05:59:51;2.45;;;2.25;;
20972;SDS011;10645;52.370;13.314;2023-03-20T06:02:36;3.75;;;3.45;;
20972;SDS011;10645;52.370;13.314;2023-03-20T06:05:14;4.95;;;3.38;;
20972;SDS011;10645;52.370;13.314;2023-03-20T06:07:46;4.20;;;2.70;;
20972;SDS011;10645;52.370;13.314;2023-03-20T06:10:14;7.25;;;3.58;;
20972;SDS011;10645;52.370;13.314;2023-03-20T06:12:40;3.22;;;2.97;;
20972;SDS011;10645;52.370;13.314;2023-03-20T06:15:07;4.63;;;4.22;;
20972;SDS011;10645;52.370;13.314;2023-03-20T06:17:38;3.97;;;3.17;;
20972;SDS011;10645;52.370;13.314;2023-03-20T06:20:04;5.97;;;2.97;;
20972;SDS011;10645;52.370;13.314;2023-03-20T06:22:31;3.90;;;3.60;;
20972;SDS011;10645;52.370;13.314;2023-03-20T06:24:58;3.97;;;3.65;;
20972;SDS011;10645;52.370;13.314;2023-03-20T06:27:30;5.95;;;5.32;;
20972;SDS011;10645;52.370;13.314;2023-03-20T06:29:57;4.57;;;3.13;;
20972;SDS011;10645;52.370;13.314;2023-03-20T06:32:29;4.45;;;4.18;;
20972;SDS011;10645;52.370;13.314;2023-03-20T06:34:57;4.80;;;4.32;;
20972;SDS011;10645;52.370;13.314;2023-03-20T06:37:24;5.88;;;4.22;;
20972;SDS011;10645;52.370;13.314;2023-03-20T06:39:57;5.88;;;3.03;;
20972;SDS011;10645;52.370;13.314;2023-03-20T06:42:23;5.50;;;4.53;;
20972;SDS011;10645;52.370;13.314;2023-03-20T06:44:50;3.30;;;3.10;;
20972;SDS011;10645;52.370;13.314;2023-03-20T06:47:37;7.93;;;4.53;;
20972;SDS011;10645;52.370;13.314;2023-03-20T06:50:05;6.20;;;5.65;;
20972;SDS011;10645;52.370;13.314;2023-03-20T06:52:31;6.65;;;3.40;;
20972;SDS011;10645;52.370;13.314;2023-03-20T06:55:18;6.55;;;4.97;;
20972;SDS011;10645;52.370;13.314;2023-03-20T06:57:44;6.30;;;5.65;;
20972;SDS011;10645;52.370;13.314;2023-03-20T07:00:11;5.95;;;5.13;;
20972;SDS011;10645;52.370;13.314;2023-03-20T07:02:37;7.38;;;4.28;;
20972;SDS011;10645;52.370;13.314;2023-03-20T07:05:04;5.57;;;4.95;;
20972;SDS011;10645;52.370;13.314;2023-03-20T07:07:31;10.35;;;6.80;;
20972;SDS011;10645;52.370;13.314;2023-03-20T07:09:57;7.15;;;4.55;;
20972;SDS011;10645;52.370;13.314;2023-03-20T07:12:24;5.97;;;4.55;;
20972;SDS011;10645;52.370;13.314;2023-03-20T07:14:53;5.07;;;4.55;;
20972;SDS011;10645;52.370;13.314;2023-03-20T07:17:20;6.53;;;5.13;;
20972;SDS011;10645;52.370;13.314;2023-03-20T07:19:48;9.43;;;7.68;;
20972;SDS011;10645;52.370;13.314;2023-03-20T07:22:20;9.77;;;6.40;;
20972;SDS011;10645;52.370;13.314;2023-03-20T07:24:49;11.60;;;6.35;;
20972;SDS011;10645;52.370;13.314;2023-03-20T07:27:17;7.75;;;6.35;;
20972;SDS011;10645;52.370;13.314;2023-03-20T07:29:43;10.63;;;5.63;;
20972;SDS011;10645;52.370;13.314;2023-03-20T07:32:12;7.05;;;5.95;;
20972;SDS011;10645;52.370;13.314;2023-03-20T07:34:46;9.93;;;5.78;;
20972;SDS011;10645;52.370;13.314;2023-03-20T07:37:12;8.38;;;6.53;;
20972;SDS011;10645;52.370;13.314;2023-03-20T07:39:42;9.48;;;7.90;;
20972;SDS011;10645;52.370;13.314;2023-03-20T07:42:27;5.50;;;5.00;;
20972;SDS011;10645;52.370;13.314;2023-03-20T07:45:09;14.85;;;8.75;;
20972;SDS011;10645;52.370;13.314;2023-03-20T07:47:35;8.02;;;4.47;;
20972;SDS011;10645;52.370;13.314;2023-03-20T07:50:03;11.48;;;4.88;;
20972;SDS011;10645;52.370;13.314;2023-03-20T07:52:30;7.75;;;5.65;;
20972;SDS011;10645;52.370;13.314;2023-03-20T07:54:56;8.50;;;4.53;;
20972;SDS011;10645;52.370;13.314;2023-03-20T07:57:22;8.38;;;5.05;;
20972;SDS011;10645;52.370;13.314;2023-03-20T07:59:49;7.78;;;5.53;;
20972;SDS011;10645;52.370;13.314;2023-03-20T08:02:15;10.30;;;6.53;;
20972;SDS011;10645;52.370;13.314;2023-03-20T08:04:43;7.60;;;6.85;;
20972;SDS011;10645;52.370;13.314;2023-03-20T08:07:10;9.80;;;5.32;;
20972;SDS011;10645;52.370;13.314;2023-03-20T08:09:36;8.32;;;5.88;;
20972;SDS011;10645;52.370;13.314;2023-03-20T08:12:02;3.40;;;3.10;;
20972;SDS011;10645;52.370;13.314;2023-03-20T08:14:29;11.07;;;6.38;;
20972;SDS011;10645;52.370;13.314;2023-03-20T08:16:56;10.48;;;6.25;;
20972;SDS011;10645;52.370;13.314;2023-03-20T08:19:22;13.25;;;6.05;;
20972;SDS011;10645;52.370;13.314;2023-03-20T08:21:48;5.93;;;5.10;;
20972;SDS011;10645;52.370;13.314;2023-03-20T08:24:16;5.60;;;4.53;;
20972;SDS011;10645;52.370;13.314;2023-03-20T08:26:42;8.25;;;5.88;;
20972;SDS011;10645;52.370;13.314;2023-03-20T08:29:08;7.22;;;5.85;;
20972;SDS011;10645;52.370;13.314;2023-03-20T08:31:34;10.25;;;5.20;;
20972;SDS011;10645;52.370;13.314;2023-03-20T08:34:00;7.75;;;5.03;;
20972;SDS011;10645;52.370;13.314;2023-03-20T08:36:26;5.55;;;5.10;;
20972;SDS011;10645;52.370;13.314;2023-03-20T08:38:53;9.13;;;5.38;;
20972;SDS011;10645;52.370;13.314;2023-03-20T08:41:19;19.13;;;4.93;;
20972;SDS011;10645;52.370;13.314;2023-03-20T08:43:45;6.18;;;5.63;;
20972;SDS011;10645;52.370;13.314;2023-03-20T08:46:12;5.82;;;5.13;;
20972;SDS011;10645;52.370;13.314;2023-03-20T08:48:38;14.35;;;6.97;;
20972;SDS011;10645;52.370;13.314;2023-03-20T08:51:04;13.23;;;6.22;;
20972;SDS011;10645;52.370;13.314;2023-03-20T08:53:30;10.65;;;4.03;;
20972;SDS011;10645;52.370;13.314;2023-03-20T08:55:56;7.38;;;4.43;;
20972;SDS011;10645;52.370;13.314;2023-03-20T08:58:23;5.07;;;4.53;;
20972;SDS011;10645;52.370;13.314;2023-03-20T09:00:49;9.10;;;5.57;;
20972;SDS011;10645;52.370;13.314;2023-03-20T09:03:17;4.13;;;3.72;;
20972;SDS011;10645;52.370;13.314;2023-03-20T09:05:46;9.30;;;5.97;;
20972;SDS011;10645;52.370;13.314;2023-03-20T09:08:13;5.70;;;4.57;;
20972;SDS011;10645;52.370;13.314;2023-03-20T09:10:39;4.25;;;3.42;;
20972;SDS011;10645;52.370;13.314;2023-03-20T09:13:06;4.00;;;3.15;;
20972;SDS011;10645;52.370;13.314;2023-03-20T09:15:33;7.78;;;3.65;;
20972;SDS011;10645;52.370;13.314;2023-03-20T09:18:00;4.32;;;3.97;;
20972;SDS011;10645;52.370;13.314;2023-03-20T09:20:26;3.78;;;3.42;;
20972;SDS011;10645;52.370;13.314;2023-03-20T09:22:52;7.40;;;4.07;;
20972;SDS011;10645;52.370;13.314;2023-03-20T09:25:18;5.20;;;3.33;;
20972;SDS011;10645;52.370;13.314;2023-03-20T09:27:44;11.65;;;5.20;;
20972;SDS011;10645;52.370;13.314;2023-03-20T09:30:11;12.85;;;4.40;;
20972;SDS011;10645;52.370;13.314;2023-03-20T09:32:37;7.10;;;4.30;;
20972;SDS011;10645;52.370;13.314;2023-03-20T09:35:04;7.13;;;3.63;;
20972;SDS011;10645;52.370;13.314;2023-03-20T09:37:31;3.92;;;3.53;;
20972;SDS011;10645;52.370;13.314;2023-03-20T09:39:57;2.42;;;2.05;;
20972;SDS011;10645;52.370;13.314;2023-03-20T09:47:46;5.25;;;3.33;;
20972;SDS011;10645;52.370;13.314;2023-03-20T09:50:35;4.90;;;2.80;;
20972;SDS011;10645;52.370;13.314;2023-03-20T09:53:17;3.22;;;2.42;;
20972;SDS011;10645;52.370;13.314;2023-03-20T09:55:51;3.40;;;3.10;;
20972;SDS011;10645;52.370;13.314;2023-03-20T09:58:20;5.35;;;3.70;;
20972;SDS011;10645;52.370;13.314;2023-03-20T10:00:49;4.07;;;2.30;;
20972;SDS011;10645;52.370;13.314;2023-03-20T10:05:59;3.40;;;2.60;;
20972;SDS011;10645;52.370;13.314;2023-03-20T10:08:35;3.70;;;3.15;;
20972;SDS011;10645;52.370;13.314;2023-03-20T10:16:38;2.35;;;2.03;;
20972;SDS011;10645;52.370;13.314;2023-03-20T10:19:20;7.15;;;2.45;;
20972;SDS011;10645;52.370;13.314;2023-03-20T10:22:00;5.63;;;2.92;;
20972;SDS011;10645;52.370;13.314;2023-03-20T10:24:35;4.40;;;3.30;;
20972;SDS011;10645;52.370;13.314;2023-03-20T10:27:05;5.03;;;3.47;;
20972;SDS011;10645;52.370;13.314;2023-03-20T10:38:37;3.97;;;2.80;;
20972;SDS011;10645;52.370;13.314;2023-03-20T10:41:16;5.43;;;4.78;;
20972;SDS011;10645;52.370;13.314;2023-03-20T10:43:48;10.60;;;2.38;;
20972;SDS011;10645;52.370;13.314;2023-03-20T10:46:24;4.60;;;2.20;;
20972;SDS011;10645;52.370;13.314;2023-03-20T10:48:56;3.65;;;1.88;;
20972;SDS011;10645;52.370;13.314;2023-03-20T10:51:35;3.05;;;2.78;;
20972;SDS011;10645;52.370;13.314;2023-03-20T10:54:23;2.17;;;1.98;;
20972;SDS011;10645;52.370;13.314;2023-03-20T10:56:56;11.20;;;2.35;;
20972;SDS011;10645;52.370;13.314;2023-03-20T10:59:28;4.80;;;2.55;;
20972;SDS011;10645;52.370;13.314;2023-03-20T11:02:09;1.20;;;1.10;;
20972;SDS011;10645;52.370;13.314;2023-03-20T11:04:36;3.28;;;2.97;;
20972;SDS011;10645;52.370;13.314;2023-03-20T11:07:07;4.28;;;3.10;;
20972;SDS011;10645;52.370;13.314;2023-03-20T11:12:40;2.78;;;2.08;;
20972;SDS011;10645;52.370;13.314;2023-03-20T11:17:57;4.10;;;1.90;;
20972;SDS011;10645;52.370;13.314;2023-03-20T11:20:26;2.88;;;2.55;;
20972;SDS011;10645;52.370;13.314;2023-03-20T11:22:58;6.18;;;2.90;;
20972;SDS011;10645;52.370;13.314;2023-03-20T11:25:31;5.68;;;3.28;;
20972;SDS011;10645;52.370;13.314;2023-03-20T11:33:32;6.15;;;3.30;;
20972;SDS011;10645;52.370;13.314;2023-03-20T11:36:04;1.50;;;1.40;;
20972;SDS011;10645;52.370;13.314;2023-03-20T11:38:46;2.20;;;2.00;;
20972;SDS011;10645;52.370;13.314;2023-03-20T11:41:16;1.40;;;1.10;;
20972;SDS011;10645;52.370;13.314;2023-03-20T11:43:48;4.18;;;2.63;;
20972;SDS011;10645;52.370;13.314;2023-03-20T11:46:14;4.03;;;1.85;;
20972;SDS011;10645;52.370;13.314;2023-03-20T11:48:42;7.63;;;3.05;;
20972;SDS011;10645;52.370;13.314;2023-03-20T11:51:17;2.63;;;2.42;;
20972;SDS011;10645;52.370;13.314;2023-03-20T11:56:19;5.22;;;3.17;;
20972;SDS011;10645;52.370;13.314;2023-03-20T11:58:55;2.13;;;1.88;;
20972;SDS011;10645;52.370;13.314;2023-03-20T12:01:23;7.10;;;2.95;;
20972;SDS011;10645;52.370;13.314;2023-03-20T12:09:55;3.17;;;1.65;;
20972;SDS011;10645;52.370;13.314;2023-03-20T12:18:03;15.07;;;3.15;;
20972;SDS011;10645;52.370;13.314;2023-03-20T12:20:41;2.88;;;2.58;;
20972;SDS011;10645;52.370;13.314;2023-03-20T12:23:22;2.88;;;2.35;;
20972;SDS011;10645;52.370;13.314;2023-03-20T12:26:02;3.92;;;1.73;;
20972;SDS011;10645;52.370;13.314;2023-03-20T12:34:07;2.45;;;2.28;;
20972;SDS011;10645;52.370;13.314;2023-03-20T12:36:45;5.10;;;3.38;;
20972;SDS011;10645;52.370;13.314;2023-03-20T12:39:17;2.30;;;2.15;;
20972;SDS011;10645;52.370;13.314;2023-03-20T12:44:40;3.78;;;3.17;;
20972;SDS011;10645;52.370;13.314;2023-03-20T12:50:51;1.95;;;1.85;;
20972;SDS011;10645;52.370;13.314;2023-03-20T12:53:28;3.05;;;2.50;;
20972;SDS011;10645;52.370;13.314;2023-03-20T12:56:20;3.80;;;2.10;;
20972;SDS011;10645;52.370;13.314;2023-03-20T12:59:09;6.50;;;2.40;;
20972;SDS011;10645;52.370;13.314;2023-03-20T13:01:50;6.78;;;2.63;;
20972;SDS011;10645;52.370;13.314;2023-03-20T13:06:52;4.15;;;2.63;;
20972;SDS011;10645;52.370;13.314;2023-03-20T13:15:21;4.68;;;3.33;;
20972;SDS011;10645;52.370;13.314;2023-03-20T13:18:14;3.75;;;2.33;;
20972;SDS011;10645;52.370;13.314;2023-03-20T13:20:47;4.47;;;3.15;;
20972;SDS011;10645;52.370;13.314;2023-03-20T13:23:29;4.75;;;2.97;;
20972;SDS011;10645;52.370;13.314;2023-03-20T13:42:20;7.22;;;4.13;;
20972;SDS011;10645;52.370;13.314;2023-03-20T13:44:48;6.93;;;3.42;;
20972;SDS011;10645;52.370;13.314;2023-03-20T13:47:19;3.55;;;1.98;;
20972;SDS011;10645;52.370;13.314;2023-03-20T13:49:59;5.45;;;4.10;;
20972;SDS011;10645;52.370;13.314;2023-03-20T13:53:00;6.38;;;3.45;;
20972;SDS011;10645;52.370;13.314;2023-03-20T13:58:38;7.43;;;3.90;;
20972;SDS011;10645;52.370;13.314;2023-03-20T14:01:29;7.40;;;4.43;;
20972;SDS011;10645;52.370;13.314;2023-03-20T14:04:15;5.47;;;4.65;;
20972;SDS011;10645;52.370;13.314;2023-03-20T14:06:51;3.83;;;3.28;;
20972;SDS011;10645;52.370;13.314;2023-03-20T14:09:35;7.80;;;4.60;;
20972;SDS011;10645;52.370;13.314;2023-03-20T14:12:03;10.27;;;4.28;;
20972;SDS011;10645;52.370;13.314;2023-03-20T14:14:54;6.03;;;4.68;;
20972;SDS011;10645;52.370;13.314;2023-03-20T14:17:28;3.78;;;3.22;;
20972;SDS011;10645;52.370;13.314;2023-03-20T14:19:56;8.60;;;4.13;;
20972;SDS011;10645;52.370;13.314;2023-03-20T14:22:41;3.78;;;3.47;;
20972;SDS011;10645;52.370;13.314;2023-03-20T14:25:07;8.48;;;4.68;;
20972;SDS011;10645;52.370;13.314;2023-03-20T14:27:59;5.45;;;4.93;;
20972;SDS011;10645;52.370;13.314;2023-03-20T14:35:49;4.40;;;3.95;;
20972;SDS011;10645;52.370;13.314;2023-03-20T14:38:38;9.40;;;4.85;;
20972;SDS011;10645;52.370;13.314;2023-03-20T14:41:36;4.75;;;4.38;;
20972;SDS011;10645;52.370;13.314;2023-03-20T14:47:11;11.50;;;6.03;;
20972;SDS011;10645;52.370;13.314;2023-03-20T14:52:46;12.25;;;9.00;;
20972;SDS011;10645;52.370;13.314;2023-03-20T14:57:46;11.13;;;5.07;;
20972;SDS011;10645;52.370;13.314;2023-03-20T15:00:20;5.65;;;5.03;;
20972;SDS011;10645;52.370;13.314;2023-03-20T15:02:50;7.90;;;4.43;;
20972;SDS011;10645;52.370;13.314;2023-03-20T15:05:22;4.90;;;4.03;;
20972;SDS011;10645;52.370;13.314;2023-03-20T15:07:57;9.82;;;5.10;;
20972;SDS011;10645;52.370;13.314;2023-03-20T15:10:33;10.95;;;4.13;;
20972;SDS011;10645;52.370;13.314;2023-03-20T15:13:05;8.35;;;4.80;;
20972;SDS011;10645;52.370;13.314;2023-03-20T15:15:33;8.48;;;4.82;;
20972;SDS011;10645;52.370;13.314;2023-03-20T15:18:09;23.70;;;12.65;;
20972;SDS011;10645;52.370;13.314;2023-03-20T15:20:37;8.20;;;4.75;;
20972;SDS011;10645;52.370;13.314;2023-03-20T15:23:04;6.68;;;5.55;;
20972;SDS011;10645;52.370;13.314;2023-03-20T15:25:32;4.07;;;3.67;;
20972;SDS011;10645;52.370;13.314;2023-03-20T15:28:11;4.78;;;3.05;;
20972;SDS011;10645;52.370;13.314;2023-03-20T15:30:41;5.35;;;3.95;;
20972;SDS011;10645;52.370;13.314;2023-03-20T15:33:15;7.18;;;4.13;;
20972;SDS011;10645;52.370;13.314;2023-03-20T15:35:44;7.18;;;4.13;;
20972;SDS011;10645;52.370;13.314;2023-03-20T15:38:11;5.63;;;4.15;;
20972;SDS011;10645;52.370;13.314;2023-03-20T15:40:40;7.95;;;5.20;;
20972;SDS011;10645;52.370;13.314;2023-03-20T15:43:25;4.80;;;4.43;;
20972;SDS011;10645;52.370;13.314;2023-03-20T15:45:52;7.88;;;4.32;;
20972;SDS011;10645;52.370;13.314;2023-03-20T15:48:21;6.60;;;5.95;;
20972;SDS011;10645;52.370;13.314;2023-03-20T15:50:51;5.05;;;4.25;;
20972;SDS011;10645;52.370;13.314;2023-03-20T15:53:23;5.80;;;3.75;;
20972;SDS011;10645;52.370;13.314;2023-03-20T15:56:01;8.15;;;3.15;;
20972;SDS011;10645;52.370;13.314;2023-03-20T15:58:30;5.15;;;4.53;;
20972;SDS011;10645;52.370;13.314;2023-03-20T16:00:57;6.05;;;5.13;;
20972;SDS011;10645;52.370;13.314;2023-03-20T16:03:25;5.32;;;3.92;;
20972;SDS011;10645;52.370;13.314;2023-03-20T16:05:52;10.30;;;5.25;;
20972;SDS011;10645;52.370;13.314;2023-03-20T16:08:21;6.60;;;3.28;;
20972;SDS011;10645;52.370;13.314;2023-03-20T16:10:53;7.13;;;5.43;;
20972;SDS011;10645;52.370;13.314;2023-03-20T16:13:20;7.03;;;3.92;;
20972;SDS011;10645;52.370;13.314;2023-03-20T16:15:49;6.63;;;4.32;;
20972;SDS011;10645;52.370;13.314;2023-03-20T16:18:16;5.93;;;3.75;;
20972;SDS011;10645;52.370;13.314;2023-03-20T16:20:45;6.13;;;5.47;;
20972;SDS011;10645;52.370;13.314;2023-03-20T16:23:20;9.13;;;4.43;;
20972;SDS011;10645;52.370;13.314;2023-03-20T16:25:57;13.27;;;4.38;;
20972;SDS011;10645;52.370;13.314;2023-03-20T16:28:27;5.90;;;4.18;;
20972;SDS011;10645;52.370;13.314;2023-03-20T16:30:54;6.28;;;5.10;;
20972;SDS011;10645;52.370;13.314;2023-03-20T16:33:36;5.47;;;4.25;;
20972;SDS011;10645;52.370;13.314;2023-03-20T16:36:04;5.60;;;3.85;;
20972;SDS011;10645;52.370;13.314;2023-03-20T16:38:32;5.65;;;4.97;;
20972;SDS011;10645;52.370;13.314;2023-03-20T16:41:13;9.45;;;4.68;;
20972;SDS011;10645;52.370;13.314;2023-03-20T16:43:44;7.32;;;4.25;;
20972;SDS011;10645;52.370;13.314;2023-03-20T16:46:16;4.40;;;3.72;;
20972;SDS011;10645;52.370;13.314;2023-03-20T16:48:55;7.00;;;4.50;;
20972;SDS011;10645;52.370;13.314;2023-03-20T16:51:26;4.20;;;3.58;;
20972;SDS011;10645;52.370;13.314;2023-03-20T16:53:58;12.23;;;7.18;;
20972;SDS011;10645;52.370;13.314;2023-03-20T16:56:34;6.25;;;5.68;;
20972;SDS011;10645;52.370;13.314;2023-03-20T16:59:08;9.07;;;4.60;;
20972;SDS011;10645;52.370;13.314;2023-03-20T17:01:42;19.45;;;16.27;;
20972;SDS011;10645;52.370;13.314;2023-03-20T17:04:19;7.00;;;4.93;;
20972;SDS011;10645;52.370;13.314;2023-03-20T17:06:48;6.85;;;5.65;;
20972;SDS011;10645;52.370;13.314;2023-03-20T17:09:19;24.05;;;11.18;;